Time;durP1;ratioP1;P1;durP2;ratioP2;P2;SDS_P1;SDS_P2;PMS_P1;PMS_P2;Temp;Humidity;BMP_temperature;BMP_pressure;BME280_temperature;BME280_humidity;BME280_pressure;Samples;Min_cycle;Max_cycle;Signal;HPM_P1;HPM_P2
2022/08/08 00:00:58;;;;;;;6.57;3.67;;;15.00;99.90;;;;;;4994654;28;20050;-80
2022/08/08 00:03:44;;;;;;;5.13;2.90;;;15.00;99.90;;;;;;4993460;28;20042;-79
2022/08/08 00:06:35;;;;;;;3.70;3.08;;;15.00;99.90;;;;;;4993962;28;20053;-79
2022/08/08 00:09:07;;;;;;;4.03;2.85;;;15.00;99.90;;;;;;4993857;28;20086;-79
2022/08/08 00:11:51;;;;;;;5.10;2.80;;;14.90;99.90;;;;;;4992631;28;20046;-80
2022/08/08 00:14:17;;;;;;;5.63;3.13;;;14.90;99.90;;;;;;4993019;28;20057;-80
2022/08/08 00:16:51;;;;;;;5.07;2.95;;;14.90;99.90;;;;;;4976778;28;20132;-79
2022/08/08 00:19:40;;;;;;;4.50;2.42;;;14.90;99.90;;;;;;4993227;28;20092;-80
2022/08/08 00:22:13;;;;;;;5.53;2.88;;;14.90;99.90;;;;;;4992448;28;20591;-80
2022/08/08 00:24:41;;;;;;;;;;;14.80;99.90;;;;;;4995217;28;20394;-79
2022/08/08 00:27:10;;;;;;;4.43;2.50;;;14.80;99.90;;;;;;4993674;28;20024;-79
2022/08/08 00:29:58;;;;;;;3.05;2.65;;;14.80;99.90;;;;;;4976609;28;20554;-80
2022/08/08 00:32:50;;;;;;;3.08;2.40;;;14.80;99.90;;;;;;4993411;28;20562;-80
2022/08/08 00:35:30;;;;;;;4.20;2.60;;;14.80;99.90;;;;;;4988843;28;20137;-79
2022/08/08 00:38:24;;;;;;;3.95;2.40;;;14.80;99.90;;;;;;4993108;28;20462;-80
2022/08/08 00:41:24;;;;;;;4.35;2.50;;;14.80;99.90;;;;;;4992922;28;20403;-79
2022/08/08 00:44:10;;;;;;;4.63;2.55;;;14.80;99.90;;;;;;4994473;28;20042;-79
2022/08/08 00:47:10;;;;;;;4.03;2.22;;;14.70;99.90;;;;;;4993460;28;20090;-79
2022/08/08 00:49:57;;;;;;;2.60;2.10;;;14.70;99.90;;;;;;4994176;28;20057;-79
2022/08/08 00:52:50;;;;;;;3.72;2.72;;;14.70;99.90;;;;;;4976445;28;20046;-80
2022/08/08 00:55:39;;;;;;;2.90;2.40;;;14.70;99.90;;;;;;4993516;28;20386;-79
2022/08/08 00:58:05;;;;;;;3.55;2.65;;;14.70;99.90;;;;;;4976663;28;20061;-80
2022/08/08 01:00:48;;;;;;;4.63;3.22;;;14.60;99.90;;;;;;4976399;28;20390;-80
2022/08/08 01:03:33;;;;;;;4.50;2.75;;;14.60;99.90;;;;;;4993610;28;20055;-80
2022/08/08 01:06:10;;;;;;;4.28;3.00;;;14.60;99.90;;;;;;4996045;28;20131;-79
2022/08/08 01:09:03;;;;;;;2.70;2.50;;;14.50;99.90;;;;;;4997191;28;20569;-80
2022/08/08 01:11:47;;;;;;;5.43;3.17;;;14.50;99.90;;;;;;4996090;28;20050;-79
2022/08/08 01:14:25;;;;;;;5.22;3.03;;;14.50;99.90;;;;;;4996691;28;20056;-80
2022/08/08 01:17:26;;;;;;;4.45;2.70;;;14.50;99.90;;;;;;4979623;28;20098;-79
2022/08/08 01:19:51;;;;;;;4.68;2.63;;;14.50;99.90;;;;;;4930548;28;20148;-79
2022/08/08 01:22:35;;;;;;;2.65;2.40;;;14.40;99.90;;;;;;4995552;28;20042;-79
2022/08/08 01:25:35;;;;;;;4.03;2.63;;;14.40;99.90;;;;;;4980271;28;20072;-79
2022/08/08 01:28:12;;;;;;;3.35;2.83;;;14.40;99.90;;;;;;4996426;28;20085;-79
2022/08/08 01:30:57;;;;;;;4.22;3.00;;;14.40;99.90;;;;;;4996138;28;20082;-79
2022/08/08 01:33:53;;;;;;;4.00;2.60;;;14.40;99.90;;;;;;4979389;28;20050;-80
2022/08/08 01:36:43;;;;;;;3.33;3.03;;;14.40;99.90;;;;;;4979059;28;20051;-79
2022/08/08 01:39:24;;;;;;;4.32;3.30;;;14.40;99.90;;;;;;4995847;28;20046;-79
2022/08/08 01:42:04;;;;;;;6.55;4.38;;;14.30;99.90;;;;;;4995486;28;20490;-79
2022/08/08 01:44:52;;;;;;;5.72;3.80;;;14.30;99.90;;;;;;4995295;28;20125;-79
2022/08/08 01:47:30;;;;;;;6.57;4.70;;;14.30;99.90;;;;;;4979866;28;20054;-79
2022/08/08 01:50:17;;;;;;;5.55;4.70;;;14.30;99.90;;;;;;4979049;28;20058;-80
2022/08/08 01:53:10;;;;;;;5.50;4.70;;;14.30;99.90;;;;;;4996046;28;20050;-80
2022/08/08 01:55:49;;;;;;;4.93;4.35;;;14.30;99.90;;;;;;4995465;28;20093;-80
2022/08/08 01:58:32;;;;;;;5.40;4.63;;;14.20;99.90;;;;;;4995038;28;20538;-80
2022/08/08 02:01:15;;;;;;;6.38;4.90;;;14.30;99.90;;;;;;4995250;28;20049;-80
2022/08/08 02:03:56;;;;;;;6.25;5.03;;;14.20;99.90;;;;;;4978468;28;20129;-80
2022/08/08 02:06:41;;;;;;;5.97;4.70;;;14.20;99.90;;;;;;4995238;28;20054;-80
2022/08/08 02:09:27;;;;;;;5.50;4.65;;;14.20;99.90;;;;;;4995147;28;20121;-79
2022/08/08 02:11:53;;;;;;;6.47;4.50;;;14.20;99.90;;;;;;4993876;28;20434;-80
2022/08/08 02:14:29;;;;;;;5.50;4.72;;;14.20;99.90;;;;;;4994932;28;20435;-80
2022/08/08 02:17:20;;;;;;;6.53;4.88;;;14.20;99.90;;;;;;4994334;28;20133;-80
2022/08/08 02:19:58;;;;;;;5.90;5.30;;;14.10;99.90;;;;;;4978764;28;20090;-79
2022/08/08 02:22:40;;;;;;;7.07;5.20;;;14.10;99.90;;;;;;4994440;28;20042;-80
2022/08/08 02:25:23;;;;;;;6.55;5.40;;;14.10;99.90;;;;;;4979209;28;20112;-80
2022/08/08 02:27:59;;;;;;;6.15;4.60;;;14.10;99.90;;;;;;4995529;28;20054;-72
2022/08/08 02:30:56;;;;;;;6.45;5.75;;;14.10;99.90;;;;;;4995568;28;20042;-71
2022/08/08 02:34:04;;;;;;;6.20;5.40;;;14.00;99.90;;;;;;4995589;28;20046;-72
2022/08/08 02:36:38;;;;;;;7.85;5.63;;;14.00;99.90;;;;;;4995578;28;20069;-72
2022/08/08 02:39:22;;;;;;;7.35;5.32;;;14.00;99.90;;;;;;4994702;28;20049;-71
2022/08/08 02:42:05;;;;;;;7.03;5.47;;;14.00;99.90;;;;;;4995394;28;20133;-72
2022/08/08 02:44:55;;;;;;;7.10;5.00;;;14.00;99.90;;;;;;4996020;28;20054;-72
2022/08/08 02:47:49;;;;;;;6.90;5.05;;;13.90;99.90;;;;;;4995893;28;20498;-71
2022/08/08 02:50:23;;;;;;;6.90;5.10;;;13.90;99.90;;;;;;4995345;28;20086;-72
2022/08/08 02:53:28;;;;;;;7.88;5.50;;;14.00;99.90;;;;;;4994656;28;20414;-72
2022/08/08 02:56:14;;;;;;;7.53;5.53;;;13.90;99.90;;;;;;4934865;29;20052;-71
2022/08/08 02:58:45;;;;;;;7.63;5.65;;;13.90;99.90;;;;;;4934925;29;20044;-72
2022/08/08 03:01:56;;;;;;;7.40;5.07;;;13.90;99.90;;;;;;4973493;28;20054;-71
2022/08/08 03:04:55;;;;;;;9.02;6.10;;;13.90;99.90;;;;;;4995571;28;20053;-72
2022/08/08 03:07:30;;;;;;;6.88;5.28;;;13.80;99.90;;;;;;4995285;28;20085;-72
2022/08/08 03:10:04;;;;;;;6.05;5.22;;;13.80;99.90;;;;;;4978057;28;20042;-72
2022/08/08 03:12:51;;;;;;;6.78;5.65;;;13.80;99.90;;;;;;4993756;28;20050;-72
2022/08/08 03:15:40;;;;;;;6.82;5.90;;;13.80;99.90;;;;;;4995596;28;20443;-72
2022/08/08 03:18:22;;;;;;;7.15;5.80;;;13.90;99.90;;;;;;4995618;28;20133;-72
2022/08/08 03:20:49;;;;;;;7.22;5.95;;;13.90;99.90;;;;;;4993440;28;20062;-72
2022/08/08 03:23:16;;;;;;;6.78;6.07;;;13.90;99.90;;;;;;4993780;28;20398;-72
2022/08/08 03:25:44;;;;;;;9.98;6.50;;;13.90;99.90;;;;;;4994480;28;20050;-72
2022/08/08 03:28:20;;;;;;;7.68;5.88;;;13.90;99.90;;;;;;4994368;28;20046;-71
2022/08/08 03:30:47;;;;;;;7.20;5.82;;;13.90;99.90;;;;;;4994666;28;20093;-71
2022/08/08 03:33:18;;;;;;;7.57;6.05;;;14.00;99.90;;;;;;4994611;28;20050;-72
2022/08/08 03:35:46;;;;;;;7.40;6.18;;;14.00;99.90;;;;;;4995107;28;20046;-72
2022/08/08 03:38:13;;;;;;;6.18;5.57;;;14.00;99.90;;;;;;4995322;28;20057;-72
2022/08/08 03:40:38;;;;;;;8.13;6.07;;;14.00;99.90;;;;;;4994410;28;20050;-72
2022/08/08 03:43:09;;;;;;;6.20;5.60;;;14.10;99.90;;;;;;4994495;28;20046;-72
2022/08/08 03:45:35;;;;;;;7.80;5.60;;;14.10;99.90;;;;;;4994398;28;20046;-72
2022/08/08 03:48:06;;;;;;;5.82;4.97;;;14.10;99.90;;;;;;4993255;28;20054;-72
2022/08/08 03:50:33;;;;;;;8.60;5.57;;;14.10;99.90;;;;;;4994602;28;20057;-72
2022/08/08 03:53:11;;;;;;;6.15;5.50;;;14.10;99.90;;;;;;4995159;28;20054;-72
2022/08/08 03:55:42;;;;;;;6.85;5.65;;;14.10;99.90;;;;;;4994317;28;20054;-72
2022/08/08 03:58:09;;;;;;;8.85;5.75;;;14.20;99.90;;;;;;4961244;28;20046;-72
2022/08/08 04:00:36;;;;;;;11.57;5.82;;;14.20;99.90;;;;;;4993495;28;20042;-71
2022/08/08 04:03:07;;;;;;;8.43;6.07;;;14.20;99.90;;;;;;4994232;28;20103;-72
2022/08/08 04:05:36;;;;;;;9.68;6.70;;;14.20;99.90;;;;;;4994765;28;20054;-71
2022/08/08 04:08:04;;;;;;;7.80;5.70;;;14.20;99.90;;;;;;4993235;28;20117;-72
2022/08/08 04:10:31;;;;;;;9.07;5.88;;;14.30;99.90;;;;;;4994138;28;20114;-72
2022/08/08 04:12:57;;;;;;;7.57;5.45;;;14.30;99.90;;;;;;4960520;28;20137;-72
2022/08/08 04:15:23;;;;;;;6.93;5.43;;;14.30;99.90;;;;;;4992992;28;20058;-71
2022/08/08 04:17:49;;;;;;;8.60;5.93;;;14.30;99.90;;;;;;4994339;28;20146;-72
2022/08/08 04:20:15;;;;;;;8.52;6.30;;;14.40;99.90;;;;;;4994029;28;20097;-72
2022/08/08 04:22:41;;;;;;;8.23;6.40;;;14.40;99.90;;;;;;4993700;28;20505;-72
2022/08/08 04:25:08;;;;;;;10.25;6.60;;;14.40;99.90;;;;;;4992843;28;20046;-72
2022/08/08 04:27:35;;;;;;;9.40;7.22;;;14.40;99.90;;;;;;4992848;28;20077;-72
2022/08/08 04:30:05;;;;;;;11.27;7.07;;;14.40;99.90;;;;;;4994738;28;20054;-72
2022/08/08 04:32:31;;;;;;;12.18;7.07;;;14.40;99.90;;;;;;4992857;28;20051;-72
2022/08/08 04:34:56;;;;;;;7.65;5.75;;;14.50;99.90;;;;;;4992778;28;20046;-72
2022/08/08 04:37:22;;;;;;;8.70;6.38;;;14.50;99.90;;;;;;4994026;28;20065;-72
2022/08/08 04:39:48;;;;;;;8.43;5.90;;;14.50;99.90;;;;;;4980277;28;20049;-72
2022/08/08 04:42:13;;;;;;;9.00;5.93;;;14.50;99.90;;;;;;4997210;28;20046;-72
2022/08/08 04:44:39;;;;;;;7.50;5.50;;;14.50;99.90;;;;;;4996683;28;20050;-72
2022/08/08 04:47:05;;;;;;;7.90;5.10;;;14.60;99.90;;;;;;4996857;28;20046;-72
2022/08/08 04:49:31;;;;;;;6.40;4.68;;;14.60;99.90;;;;;;4996398;28;20402;-72
2022/08/08 04:51:57;;;;;;;6.82;5.20;;;14.60;99.90;;;;;;4997301;28;20141;-72
2022/08/08 04:54:22;;;;;;;6.10;4.85;;;14.60;99.90;;;;;;4996458;28;20049;-72
2022/08/08 04:56:48;;;;;;;6.40;4.97;;;14.70;99.90;;;;;;4997343;28;20046;-72
2022/08/08 04:59:14;;;;;;;9.27;5.93;;;14.70;99.90;;;;;;4996063;28;20078;-72
2022/08/08 05:01:40;;;;;;;6.55;5.55;;;14.70;99.90;;;;;;4997304;28;20097;-72
2022/08/08 05:04:05;;;;;;;8.35;4.80;;;14.70;99.90;;;;;;4997233;28;20038;-72
2022/08/08 05:06:31;;;;;;;8.27;4.93;;;14.70;99.90;;;;;;4996279;28;20074;-72
2022/08/08 05:08:57;;;;;;;5.85;4.45;;;14.70;99.90;;;;;;4996212;28;20093;-72
2022/08/08 05:11:23;;;;;;;7.00;4.82;;;14.80;99.90;;;;;;4997064;28;20494;-72
2022/08/08 05:13:48;;;;;;;5.82;4.53;;;14.70;99.90;;;;;;4996007;28;20054;-72
2022/08/08 05:16:14;;;;;;;6.30;4.68;;;14.70;99.90;;;;;;4979676;28;20050;-72
2022/08/08 05:18:40;;;;;;;7.13;4.50;;;14.70;99.90;;;;;;4996941;28;20057;-71
2022/08/08 05:21:09;;;;;;;6.78;4.85;;;14.70;99.90;;;;;;4995720;28;20050;-72
2022/08/08 05:23:35;;;;;;;6.85;4.40;;;14.70;99.90;;;;;;4996883;28;20050;-72
2022/08/08 05:26:01;;;;;;;6.28;4.32;;;14.70;99.90;;;;;;4995909;28;20046;-72
2022/08/08 05:28:27;;;;;;;6.10;4.40;;;14.80;99.90;;;;;;4995617;28;20383;-72
2022/08/08 05:30:53;;;;;;;6.68;3.53;;;14.80;99.90;;;;;;4997055;28;20056;-71
2022/08/08 05:33:19;;;;;;;6.15;3.92;;;14.90;99.90;;;;;;4996747;28;20133;-72
2022/08/08 05:35:45;;;;;;;4.80;4.30;;;14.90;99.90;;;;;;4995654;28;20046;-72
2022/08/08 05:38:16;;;;;;;4.68;4.07;;;15.00;99.90;;;;;;4996573;28;20047;-73
2022/08/08 05:40:47;;;;;;;5.32;3.70;;;15.00;99.90;;;;;;4996651;28;20132;-72
2022/08/08 05:43:28;;;;;;;5.07;3.50;;;15.10;99.90;;;;;;4995505;28;20056;-72
2022/08/08 05:45:59;;;;;;;5.82;3.78;;;15.10;99.90;;;;;;4996390;28;20054;-72
2022/08/08 05:48:25;;;;;;;4.90;4.18;;;15.20;99.90;;;;;;5012380;28;20042;-72
2022/08/08 05:50:51;;;;;;;5.65;3.60;;;15.30;99.90;;;;;;4996149;28;20133;-72
2022/08/08 05:53:24;;;;;;;8.85;4.25;;;15.30;99.90;;;;;;4996437;28;20125;-72
2022/08/08 05:55:55;;;;;;;;;;;15.30;99.90;;;;;;4995535;28;20056;-72
2022/08/08 05:58:27;;;;;;;7.65;3.67;;;15.40;99.90;;;;;;4995678;28;19984;-72
2022/08/08 06:00:55;;;;;;;5.65;3.83;;;15.40;99.90;;;;;;4996410;28;20446;-72
2022/08/08 06:03:22;;;;;;;6.72;3.53;;;15.60;99.90;;;;;;4995243;28;20054;-71
2022/08/08 06:05:53;;;;;;;4.90;3.25;;;15.60;99.90;;;;;;4996191;28;20168;-72
2022/08/08 06:08:28;;;;;;;6.00;3.55;;;15.60;99.90;;;;;;4996168;28;20042;-72
2022/08/08 06:10:55;;;;;;;6.80;3.22;;;15.70;99.90;;;;;;4979195;28;20058;-72
2022/08/08 06:13:21;;;;;;;5.55;3.08;;;15.80;99.90;;;;;;4996070;28;20058;-72
2022/08/08 06:15:49;;;;;;;6.25;3.30;;;15.80;99.90;;;;;;4996022;28;20039;-72
2022/08/08 06:18:16;;;;;;;5.50;3.20;;;15.90;99.90;;;;;;4995909;28;20060;-72
2022/08/08 06:20:43;;;;;;;4.95;3.28;;;15.90;99.90;;;;;;4995868;28;20054;-72
2022/08/08 06:23:09;;;;;;;7.53;3.40;;;16.00;99.90;;;;;;4994883;28;20147;-72
2022/08/08 06:25:42;;;;;;;5.82;3.40;;;16.00;99.90;;;;;;4995770;28;20073;-72
2022/08/08 06:28:13;;;;;;;;;;;16.10;99.90;;;;;;4995839;28;20513;-72
2022/08/08 06:30:42;;;;;;;6.00;3.45;;;16.10;99.90;;;;;;4994710;28;19928;-71
2022/08/08 06:33:11;;;;;;;5.22;2.92;;;16.20;99.90;;;;;;4995664;28;20053;-72
2022/08/08 06:35:46;;;;;;;5.47;3.22;;;16.30;99.90;;;;;;4996172;28;20125;-72
2022/08/08 06:38:18;;;;;;;5.53;3.50;;;16.30;99.90;;;;;;4996162;28;20054;-73
2022/08/08 06:40:48;;;;;;;6.43;3.08;;;16.40;99.90;;;;;;4995999;28;20043;-72
2022/08/08 06:43:21;;;;;;;4.90;3.47;;;16.50;99.90;;;;;;4994250;28;20101;-73
2022/08/08 06:45:47;;;;;;;6.68;3.25;;;16.50;99.90;;;;;;4996309;28;20406;-73
2022/08/08 06:48:14;;;;;;;6.80;3.50;;;16.50;99.90;;;;;;4994091;28;20050;-73
2022/08/08 06:50:41;;;;;;;5.50;3.45;;;16.60;99.90;;;;;;4994109;28;20506;-73
2022/08/08 06:53:07;;;;;;;5.32;3.60;;;16.60;99.90;;;;;;4995259;28;20050;-73
2022/08/08 06:55:35;;;;;;;5.40;2.92;;;16.60;99.90;;;;;;4995270;28;20062;-73
2022/08/08 06:58:01;;;;;;;6.78;2.97;;;16.70;99.90;;;;;;4995139;28;20054;-72
2022/08/08 07:00:34;;;;;;;5.85;2.90;;;16.70;99.90;;;;;;4995061;28;20046;-72
2022/08/08 07:03:05;;;;;;;6.05;3.35;;;16.80;99.90;;;;;;4993459;28;20054;-73
2022/08/08 07:05:36;;;;;;;5.55;3.30;;;16.80;99.90;;;;;;4993779;28;20046;-73
2022/08/08 07:08:12;;;;;;;4.60;2.85;;;16.80;99.90;;;;;;4995732;28;20054;-73
2022/08/08 07:10:44;;;;;;;6.53;3.00;;;16.90;99.90;;;;;;4995178;28;20046;-73
2022/08/08 07:13:16;;;;;;;5.50;2.95;;;16.90;99.90;;;;;;4993576;28;20078;-72
2022/08/08 07:15:55;;;;;;;4.60;2.30;;;17.00;99.90;;;;;;4994770;28;20112;-72
2022/08/08 07:18:44;;;;;;;8.82;3.20;;;17.00;99.90;;;;;;4994778;28;20093;-72
2022/08/08 07:21:15;;;;;;;3.33;2.60;;;17.10;99.90;;;;;;4980982;28;20086;-72
2022/08/08 07:23:58;;;;;;;6.90;2.20;;;17.20;99.90;;;;;;4977297;28;20054;-72
2022/08/08 07:26:26;;;;;;;5.55;2.15;;;17.20;99.90;;;;;;4994660;28;20049;-73
2022/08/08 07:28:53;;;;;;;4.25;1.67;;;17.30;99.90;;;;;;4997341;28;20058;-73
2022/08/08 07:31:20;;;;;;;3.45;1.88;;;17.40;99.90;;;;;;4995145;28;20047;-73
2022/08/08 07:33:48;;;;;;;6.88;1.80;;;17.50;99.90;;;;;;4995085;28;20052;-72
2022/08/08 07:36:14;;;;;;;7.07;1.83;;;17.60;99.90;;;;;;4994352;28;20046;-72
2022/08/08 07:38:40;;;;;;;6.68;1.48;;;17.60;99.90;;;;;;4977686;28;20054;-73
2022/08/08 07:41:08;;;;;;;4.63;1.50;;;17.90;99.90;;;;;;4993451;28;20463;-73
2022/08/08 07:43:34;;;;;;;3.35;1.30;;;18.00;99.90;;;;;;4994472;28;20387;-72
2022/08/08 07:46:00;;;;;;;4.35;1.25;;;17.80;99.90;;;;;;4995170;28;20046;-72
2022/08/08 07:48:25;;;;;;;3.38;1.60;;;18.00;99.90;;;;;;4995250;28;20058;-73
2022/08/08 07:50:57;;;;;;;4.68;1.52;;;18.00;99.90;;;;;;4977251;28;20137;-72
2022/08/08 07:53:29;;;;;;;5.10;1.70;;;18.10;99.90;;;;;;4993449;28;20513;-73
2022/08/08 07:55:59;;;;;;;2.67;1.10;;;18.10;99.90;;;;;;4993595;28;20042;-73
2022/08/08 07:58:43;;;;;;;3.80;1.23;;;18.20;99.90;;;;;;4993210;28;20054;-72
2022/08/08 08:01:14;;;;;;;2.55;0.90;;;18.30;99.90;;;;;;4993606;28;20054;-72
2022/08/08 08:03:49;;;;;;;4.30;1.20;;;18.30;99.90;;;;;;4994815;28;20053;-72
2022/08/08 08:06:18;;;;;;;2.55;1.25;;;18.40;99.90;;;;;;4994201;28;20101;-72
2022/08/08 08:09:06;;;;;;;1.63;0.88;;;18.40;99.90;;;;;;4993042;28;20092;-72
2022/08/08 08:11:34;;;;;;;5.43;1.17;;;18.50;99.90;;;;;;4994214;28;20046;-71
2022/08/08 08:14:07;;;;;;;2.28;0.68;;;18.70;99.90;;;;;;4996383;28;20395;-72
2022/08/08 08:16:34;;;;;;;;;;;18.80;99.90;;;;;;4997995;28;20480;-72
2022/08/08 08:19:05;;;;;;;2.03;1.00;;;18.80;99.90;;;;;;4997408;28;19921;-72
2022/08/08 08:21:42;;;;;;;2.83;0.90;;;18.90;99.90;;;;;;4998031;28;20064;-70
2022/08/08 08:24:08;;;;;;;2.60;1.05;;;18.90;99.90;;;;;;4998093;28;20038;-70
2022/08/08 08:26:34;;;;;;;4.38;0.90;;;18.90;99.90;;;;;;4997988;28;20082;-70
2022/08/08 08:29:01;;;;;;;2.83;1.00;;;19.00;99.90;;;;;;4996649;28;20046;-70
2022/08/08 08:31:27;;;;;;;1.50;1.08;;;19.00;99.90;;;;;;4996842;28;20115;-71
2022/08/08 08:33:53;;;;;;;5.55;1.13;;;19.00;99.90;;;;;;4996561;28;20125;-71
2022/08/08 08:36:19;;;;;;;2.63;0.85;;;19.00;99.90;;;;;;4997588;28;20189;-71
2022/08/08 08:38:45;;;;;;;1.90;0.75;;;19.00;99.90;;;;;;4996823;28;20057;-70
2022/08/08 08:41:11;;;;;;;4.22;0.80;;;19.00;99.90;;;;;;4998168;28;20046;-71
2022/08/08 08:43:40;;;;;;;2.67;1.00;;;19.00;99.90;;;;;;4997868;28;20474;-71
2022/08/08 08:46:08;;;;;;;2.15;1.00;;;19.00;99.90;;;;;;4997822;28;20046;-72
2022/08/08 08:48:34;;;;;;;2.15;0.93;;;19.00;99.90;;;;;;4997555;28;20046;-70
2022/08/08 08:51:01;;;;;;;3.78;1.10;;;19.00;99.90;;;;;;4997522;28;20133;-70
2022/08/08 08:53:30;;;;;;;3.35;1.00;;;19.00;99.90;;;;;;4997423;28;20487;-69
2022/08/08 08:55:56;;;;;;;2.85;0.90;;;19.00;99.90;;;;;;4997696;28;20050;-71
2022/08/08 08:58:45;;;;;;;3.63;0.90;;;19.00;99.90;;;;;;4997338;28;20061;-71
2022/08/08 09:01:14;;;;;;;3.13;1.05;;;19.00;99.90;;;;;;4997327;28;20034;-71
2022/08/08 09:03:46;;;;;;;3.80;1.30;;;19.00;99.90;;;;;;4996344;28;20042;-71
2022/08/08 09:06:14;;;;;;;;;;;19.00;99.90;;;;;;4997641;28;20133;-71
2022/08/08 09:08:43;;;;;;;2.40;1.00;;;19.00;99.90;;;;;;4997137;28;20013;-70
2022/08/08 09:11:10;;;;;;;2.45;0.80;;;19.00;99.90;;;;;;4997194;28;20050;-70
2022/08/08 09:13:37;;;;;;;4.45;1.00;;;19.00;99.90;;;;;;4995473;28;20137;-70
2022/08/08 09:16:03;;;;;;;4.80;0.85;;;19.10;99.90;;;;;;4997315;28;20092;-72
2022/08/08 09:18:29;;;;;;;3.95;0.90;;;19.10;99.90;;;;;;4995935;28;20126;-72
2022/08/08 09:20:59;;;;;;;6.65;1.15;;;19.10;99.90;;;;;;4994840;28;20047;-72
2022/08/08 09:23:26;;;;;;;2.63;0.73;;;19.10;99.90;;;;;;4980104;28;20053;-71
2022/08/08 09:25:57;;;;;;;1.83;0.90;;;19.10;99.90;;;;;;4995323;28;20077;-72
2022/08/08 09:28:27;;;;;;;1.77;0.70;;;19.20;99.90;;;;;;4996216;28;20046;-71
2022/08/08 09:30:56;;;;;;;3.47;0.90;;;19.20;99.90;;;;;;4995778;28;20081;-72
2022/08/08 09:33:24;;;;;;;2.97;0.80;;;19.30;99.90;;;;;;4994807;28;20391;-72
2022/08/08 09:35:51;;;;;;;3.65;0.90;;;19.30;99.90;;;;;;4995498;28;20174;-71
2022/08/08 09:38:35;;;;;;;2.38;0.90;;;19.30;99.90;;;;;;4978047;28;20042;-72
2022/08/08 09:41:05;;;;;;;1.40;0.65;;;19.40;99.90;;;;;;4995748;28;20112;-71
2022/08/08 09:43:38;;;;;;;1.35;0.60;;;19.40;99.90;;;;;;4979101;28;20050;-72
2022/08/08 09:46:05;;;;;;;1.48;0.70;;;19.30;99.90;;;;;;4994841;28;20530;-72
2022/08/08 09:48:37;;;;;;;3.08;0.57;;;19.30;99.90;;;;;;4994555;28;20050;-72
2022/08/08 09:51:04;;;;;;;1.80;0.60;;;19.30;99.90;;;;;;4995389;28;20054;-72
2022/08/08 09:53:51;;;;;;;2.00;0.60;;;19.30;99.90;;;;;;4995249;28;20081;-72
2022/08/08 09:56:18;;;;;;;2.33;0.70;;;19.30;99.90;;;;;;4994388;28;20058;-72
2022/08/08 09:59:02;;;;;;;1.75;0.70;;;19.30;99.90;;;;;;4994517;28;20129;-72
2022/08/08 10:01:31;;;;;;;1.40;0.68;;;19.40;99.90;;;;;;4994500;28;20046;-71
2022/08/08 10:03:58;;;;;;;1.52;0.60;;;19.60;99.90;;;;;;4994559;28;20097;-71
2022/08/08 10:06:25;;;;;;;2.72;0.68;;;19.70;99.90;;;;;;4995699;28;20042;-71
2022/08/08 10:08:52;;;;;;;3.75;0.60;;;19.80;99.90;;;;;;4994622;28;20137;-71
2022/08/08 10:11:20;;;;;;;1.92;0.70;;;19.90;99.90;;;;;;4994889;28;20108;-72
2022/08/08 10:14:12;;;;;;;0.52;0.52;;;20.00;99.90;;;;;;4995180;28;20054;-73
2022/08/08 10:16:40;;;;;;;2.28;0.70;;;20.10;99.90;;;;;;4992200;28;20101;-72
2022/08/08 10:19:10;;;;;;;0.70;0.70;;;20.10;99.90;;;;;;4995043;28;20101;-73
2022/08/08 10:21:37;;;;;;;1.13;0.70;;;20.10;99.90;;;;;;4995148;28;20055;-72
2022/08/08 10:24:08;;;;;;;1.60;0.60;;;20.10;99.90;;;;;;4995870;28;20070;-73
2022/08/08 10:27:03;;;;;;;3.38;0.75;;;20.10;99.90;;;;;;4993990;28;20116;-73
2022/08/08 10:29:34;;;;;;;2.10;0.60;;;20.00;99.90;;;;;;4982360;28;20069;-73
2022/08/08 10:34:51;;;;;;;2.42;0.60;;;19.80;99.90;;;;;;4994334;28;20050;-73
2022/08/08 10:37:31;;;;;;;1.63;0.60;;;19.80;99.90;;;;;;4994194;28;20061;-72
2022/08/08 10:39:59;;;;;;;3.13;0.60;;;19.80;99.90;;;;;;4995906;28;20061;-73
2022/08/08 10:42:33;;;;;;;1.48;0.60;;;19.70;99.90;;;;;;4995241;28;20082;-74
2022/08/08 10:45:06;;;;;;;2.35;0.70;;;19.60;99.90;;;;;;4994802;28;20371;-74
2022/08/08 10:47:32;;;;;;;1.75;0.60;;;19.60;99.90;;;;;;4994228;28;20651;-73
2022/08/08 10:50:05;;;;;;;1.90;0.57;;;19.60;99.90;;;;;;4994275;28;20360;-74
2022/08/08 10:52:37;;;;;;;2.53;1.00;;;19.50;99.90;;;;;;4995371;28;20364;-73
2022/08/08 10:55:14;;;;;;;3.10;0.70;;;19.50;99.90;;;;;;4994523;28;20038;-73
2022/08/08 10:57:49;;;;;;;2.63;0.60;;;19.50;99.90;;;;;;5119650;27;20493;-72
2022/08/08 11:00:24;;;;;;;2.85;0.80;;;19.40;99.90;;;;;;5111668;28;20039;-72
2022/08/08 11:02:50;;;;;;;2.17;0.77;;;19.40;99.90;;;;;;5114815;28;20035;-72
2022/08/08 11:05:17;;;;;;;1.13;0.70;;;19.40;99.90;;;;;;5129072;28;20075;-72
2022/08/08 11:07:51;;;;;;;3.30;0.70;;;19.50;99.90;;;;;;5131699;27;20039;-72
2022/08/08 11:10:20;;;;;;;1.23;0.70;;;19.50;99.90;;;;;;5131690;27;20048;-73
2022/08/08 11:12:52;;;;;;;1.70;0.77;;;19.40;99.90;;;;;;5131728;27;20043;-72
2022/08/08 11:15:20;;;;;;;2.17;0.70;;;19.40;99.90;;;;;;5130551;27;20483;-73
2022/08/08 11:17:47;;;;;;;2.35;0.80;;;19.40;99.90;;;;;;5131414;27;20445;-73
2022/08/08 11:20:18;;;;;;;1.85;0.65;;;19.50;99.90;;;;;;5130358;28;20047;-73
2022/08/08 11:22:49;;;;;;;3.20;0.70;;;19.50;99.90;;;;;;5132091;27;20108;-73
2022/08/08 11:25:16;;;;;;;3.30;0.90;;;19.50;99.90;;;;;;5131574;27;20045;-73
2022/08/08 11:27:42;;;;;;;1.42;0.77;;;19.50;99.90;;;;;;5131460;27;20112;-73
2022/08/08 11:30:08;;;;;;;3.53;0.70;;;19.50;99.90;;;;;;5129852;28;20483;-73
2022/08/08 11:32:38;;;;;;;2.63;0.75;;;19.50;99.90;;;;;;5131052;27;20487;-74
2022/08/08 11:35:11;;;;;;;1.90;0.80;;;19.50;99.90;;;;;;5130340;28;20130;-74
2022/08/08 11:37:40;;;;;;;1.63;0.90;;;19.50;99.90;;;;;;5131555;27;20047;-75
2022/08/08 11:40:09;;;;;;;2.25;0.80;;;19.50;99.90;;;;;;5129996;28;20081;-75
2022/08/08 11:42:35;;;;;;;1.40;0.85;;;19.60;99.90;;;;;;5131054;27;20071;-74
2022/08/08 11:45:03;;;;;;;1.35;0.80;;;19.60;99.90;;;;;;5129883;28;20054;-74
2022/08/08 11:47:29;;;;;;;0.95;0.70;;;19.60;99.90;;;;;;5131166;27;20043;-74
2022/08/08 11:49:58;;;;;;;1.23;0.70;;;19.70;99.90;;;;;;5113339;28;20131;-74
2022/08/08 11:52:24;;;;;;;3.28;0.90;;;19.70;99.90;;;;;;5129767;28;20108;-74
2022/08/08 11:54:51;;;;;;;3.72;0.65;;;19.70;99.90;;;;;;5130886;27;20128;-74
2022/08/08 11:57:16;;;;;;;1.73;0.70;;;19.80;99.90;;;;;;5129246;28;20072;-74
2022/08/08 11:59:56;;;;;;;2.45;0.80;;;19.80;99.90;;;;;;5129598;28;20482;-75
2022/08/08 12:02:25;;;;;;;1.48;0.75;;;19.90;99.90;;;;;;5130938;27;20047;-74
2022/08/08 12:05:09;;;;;;;2.63;0.80;;;19.90;99.90;;;;;;5131155;27;20116;-74
2022/08/08 12:07:47;;;;;;;3.00;0.90;;;19.90;99.90;;;;;;5124457;27;20062;-74
2022/08/08 12:10:15;;;;;;;0.70;0.65;;;20.00;99.90;;;;;;5116091;28;20055;-74
2022/08/08 12:12:42;;;;;;;4.18;0.90;;;20.00;99.90;;;;;;5116311;28;20047;-73
2022/08/08 12:15:08;;;;;;;1.70;0.82;;;20.00;99.90;;;;;;5115874;28;20385;-73
2022/08/08 12:17:36;;;;;;;1.95;0.80;;;20.10;99.90;;;;;;5116965;28;20046;-73
2022/08/08 12:20:03;;;;;;;1.98;0.70;;;20.10;99.90;;;;;;5115755;28;20092;-73
2022/08/08 12:22:44;;;;;;;1.58;0.60;;;20.10;99.90;;;;;;5116850;28;20051;-74
2022/08/08 12:25:22;;;;;;;2.50;0.75;;;20.20;99.90;;;;;;5117095;28;20051;-74
2022/08/08 12:27:48;;;;;;;2.58;0.60;;;20.20;99.90;;;;;;5117017;28;20042;-75
2022/08/08 12:30:14;;;;;;;3.03;0.93;;;20.20;99.90;;;;;;5115578;28;20122;-75
2022/08/08 12:32:45;;;;;;;3.22;0.80;;;20.20;99.90;;;;;;5114822;28;20122;-75
2022/08/08 12:35:22;;;;;;;4.07;0.90;;;20.20;99.90;;;;;;5113988;28;20071;-75
2022/08/08 12:38:11;;;;;;;3.05;0.70;;;20.30;99.90;;;;;;5112413;28;20050;-76
2022/08/08 12:40:40;;;;;;;2.15;0.70;;;20.30;99.90;;;;;;5114616;28;20100;-76
2022/08/08 12:43:06;;;;;;;2.13;0.60;;;20.20;99.90;;;;;;5115645;28;20039;-74
2022/08/08 12:45:41;;;;;;;0.80;0.60;;;20.20;99.90;;;;;;5115713;27;20035;-75
2022/08/08 12:48:19;;;;;;;1.40;0.70;;;20.20;99.90;;;;;;5113304;28;20042;-74
2022/08/08 12:50:48;;;;;;;2.53;0.80;;;20.20;99.90;;;;;;5114637;28;20044;-75
2022/08/08 12:53:25;;;;;;;3.30;0.70;;;20.20;99.90;;;;;;5114723;28;20075;-75
2022/08/08 12:55:57;;;;;;;2.40;0.90;;;20.20;99.90;;;;;;5113188;28;20131;-75
2022/08/08 12:58:24;;;;;;;2.05;0.75;;;20.20;99.90;;;;;;5115621;28;20110;-73
2022/08/08 13:00:50;;;;;;;1.67;0.88;;;20.20;99.90;;;;;;5115084;28;20368;-74
2022/08/08 13:03:27;;;;;;;1.83;0.70;;;20.20;99.90;;;;;;5115479;28;20039;-74
2022/08/08 13:06:07;;;;;;;1.38;0.60;;;20.20;99.90;;;;;;5113631;28;20063;-75
2022/08/08 13:08:43;;;;;;;2.22;0.60;;;20.20;99.90;;;;;;5113442;28;20471;-74
2022/08/08 13:11:31;;;;;;;1.50;0.75;;;20.20;99.90;;;;;;5113069;28;20043;-74
2022/08/08 13:14:04;;;;;;;2.05;0.75;;;20.20;99.90;;;;;;5113160;28;20039;-74
2022/08/08 13:16:34;;;;;;;2.33;0.85;;;20.30;99.90;;;;;;5112814;28;20092;-74
2022/08/08 13:19:08;;;;;;;2.47;0.85;;;20.30;99.90;;;;;;5114829;28;20374;-75
2022/08/08 13:21:45;;;;;;;2.13;0.60;;;20.30;99.90;;;;;;5113582;28;20044;-75